Time;durP1;ratioP1;P1;durP2;ratioP2;P2;SDS_P1;SDS_P2;PMS_P1;PMS_P2;Temp;Humidity;BMP_temperature;BMP_pressure;BME280_temperature;BME280_humidity;BME280_pressure;Samples;Min_cycle;Max_cycle;Signal;HPM_P1;HPM_P2
2023/02/25 07:31:40;;;;;;;;;;;;;;;;;;;;;
2023/02/25 07:34:06;;;;;;;;;4.00;3.00;;;;;7.90;61.77;100751.13;4899413;28;69192;-74
2023/02/25 08:36:09;;;;;;;;;3.75;1.75;;;;;7.69;60.97;100781.72;4845409;29;45621;-72
2023/02/25 08:38:44;;;;;;;;;2.00;2.00;;;;;8.10;60.88;100827.81;4858772;29;45563;-73
2023/02/25 08:44:47;;;;;;;;;1.75;1.00;;;;;7.94;60.28;100811.31;4824080;29;45687;-73
2023/02/25 08:47:52;;;;;;;;;;;;;;;;;;;;;
2023/02/25 08:50:44;;;;;;;;;;;;;;;;;;;;;
2023/02/25 08:53:58;;;;;;;;;2.75;1.75;;;;;7.59;60.78;100784.53;4859636;29;70395;-73
2023/02/25 08:56:59;;;;;;;;;;;;;;;;;;;;;
2023/02/25 08:59:34;;;;;;;;;2.00;2.00;;;;;7.64;61.24;100799.53;4850683;29;75089;-73
2023/02/25 09:05:43;;;;;;;;;;;;;;;;;;;;;
2023/02/25 09:18:19;;;;;;;;;3.75;3.00;;;;;7.62;60.27;100735.78;5785027;23;45199;-71
2023/02/25 09:20:48;;;;;;;;;3.00;1.00;;;;;7.71;60.17;100751.53;4882932;29;45763;-71
2023/02/25 09:23:14;;;;;;;;;3.75;2.25;;;;;8.04;60.67;100793.41;4899949;29;48147;-70
2023/02/25 09:25:40;;;;;;;;;4.50;2.25;;;;;8.19;60.29;100800.19;4901247;29;45413;-71
2023/02/25 09:28:06;;;;;;;;;2.00;1.00;;;;;8.29;60.08;100812.38;4892707;29;45928;-70
2023/02/25 09:30:32;;;;;;;;;2.75;1.25;;;;;8.37;60.26;100820.16;4892784;29;45472;-70
2023/02/25 09:32:57;;;;;;;;;3.00;3.00;;;;;8.44;59.99;100824.50;4892474;28;46342;-71
2023/02/25 09:35:23;;;;;;;;;7.25;6.00;;;;;8.23;60.06;100784.09;4886349;29;45529;-71
2023/02/25 09:37:48;;;;;;;;;2.00;1.25;;;;;8.19;60.38;100757.63;4886331;29;45952;-71
2023/02/25 09:40:21;;;;;;;;;3.25;3.25;;;;;8.33;59.78;100784.78;4905287;28;45466;-72
2023/02/25 09:43:22;;;;;;;;;6.75;2.75;;;;;8.71;59.49;100836.28;4894760;28;46183;-73
2023/02/25 09:45:49;;;;;;;;;1.25;1.00;;;;;8.42;59.46;100789.91;4880952;29;46052;-72
2023/02/25 09:48:19;;;;;;;;;3.50;2.00;;;;;8.74;59.21;100833.56;4889939;29;46787;-69
2023/02/25 09:50:56;;;;;;;;;3.00;2.00;;;;;8.77;59.22;100836.16;4900110;28;45371;-71
2023/02/25 09:53:40;;;;;;;;;3.75;1.00;;;;;8.52;59.26;100787.94;4896600;28;45451;-72
2023/02/25 09:56:08;;;;;;;;;6.00;1.75;;;;;8.51;59.22;100784.38;4900460;29;45756;-71
2023/02/25 09:58:49;;;;;;;;;2.25;1.50;;;;;8.58;58.89;100800.22;4895578;29;45476;-71
2023/02/25 10:01:46;;;;;;;;;2.00;2.00;;;;;8.70;59.06;100815.88;4899326;29;45699;-70
2023/02/25 10:04:21;;;;;;;;;3.25;1.50;;;;;8.91;58.66;100827.81;4899536;28;48322;-73
2023/02/25 10:06:50;;;;;;;;;2.00;1.00;;;;;8.96;58.83;100830.38;4899147;29;45303;-70
2023/02/25 10:10:00;;;;;;;;;2.75;2.00;;;;;9.02;58.55;100828.44;4900408;29;45378;-70
2023/02/25 10:12:58;;;;;;;;;0.25;0.25;;;;;8.82;58.36;100783.69;4843107;29;45439;-70
2023/02/25 10:15:52;;;;;;;;;2.00;2.00;;;;;8.89;58.18;100800.38;4897894;29;45534;-70
2023/02/25 10:19:10;;;;;;;;;6.75;2.50;;;;;9.20;57.96;100832.41;4889663;29;45750;-73
2023/02/25 10:21:57;;;;;;;;;;;;;;;;;;;;;
2023/02/25 10:28:33;;;;;;;;;1.00;1.00;;;;;8.68;56.82;100759.16;4883889;29;45666;-70
2023/02/25 10:31:04;;;;;;;;;2.75;1.00;;;;;9.09;56.62;100831.84;4885122;29;45367;-73
2023/02/25 10:33:37;;;;;;;;;3.25;1.00;;;;;9.07;56.84;100822.97;4884088;29;45350;-69
2023/02/25 10:36:41;;;;;;;;;;;;;;;;;;;;;
2023/02/25 10:39:33;;;;;;;;;1.75;1.50;;;;;9.02;56.74;100792.94;4892139;29;75289;-69
2023/02/25 10:42:02;;;;;;;;;4.00;1.50;;;;;9.09;56.29;100787.44;4906232;28;45715;-72
2023/02/25 10:44:27;;;;;;;;;2.00;2.00;;;;;9.14;56.20;100805.97;4899122;29;45543;-72
2023/02/25 10:47:05;;;;;;;;;0.50;0.00;;;;;8.96;53.71;100769.16;4895863;29;45306;-74
2023/02/25 10:49:36;;;;;;;;;3.00;2.00;;;;;8.86;54.86;100773.81;4885420;29;46320;-72
2023/02/25 10:52:13;;;;;;;;;1.00;1.00;;;;;8.85;54.69;100780.94;4893092;28;45656;-69
2023/02/25 10:54:49;;;;;;;;;1.25;1.00;;;;;9.03;54.04;100814.19;4892777;29;46189;-71
2023/02/25 10:57:20;;;;;;;;;1.00;1.00;;;;;8.85;54.24;100783.59;4897711;29;45519;-69
2023/02/25 10:59:48;;;;;;;;;1.25;1.00;;;;;8.80;54.30;100774.81;4902394;28;47061;-69
2023/02/25 11:03:04;;;;;;;;;;;;;;;;;;;;;
2023/02/25 11:05:44;;;;;;;;;2.75;1.50;;;;;8.91;53.98;100758.59;4858769;29;68999;-70
2023/02/25 11:11:26;;;;;;;;;1.25;0.00;;;;;9.22;53.50;100803.06;4890657;28;46408;-69
2023/02/25 11:14:12;;;;;;;;;3.00;1.75;;;;;9.09;52.74;100767.91;4896379;28;45647;-74
2023/02/25 11:16:40;;;;;;;;;0.75;0.00;;;;;9.05;52.48;100771.56;4890273;29;46523;-70
2023/02/25 11:19:21;;;;;;;;;1.50;0.50;;;;;9.03;52.53;100757.41;4897075;29;45464;-70
2023/02/25 11:21:47;;;;;;;;;0.25;0.25;;;;;9.15;52.30;100778.41;4917001;28;48113;-70
2023/02/25 11:24:30;;;;;;;;;0.75;0.75;;;;;8.95;52.13;100724.78;4909780;28;46028;-70
2023/02/25 11:26:59;;;;;;;;;1.50;1.00;;;;;9.16;51.86;100753.53;4889256;28;45422;-69
2023/02/25 11:29:37;;;;;;;;;1.00;1.00;;;;;9.36;50.59;100781.44;4895710;29;46339;-69
2023/02/25 11:32:16;;;;;;;;;0.00;0.00;;;;;9.46;51.29;100805.09;4899540;28;46180;-70
2023/02/25 11:34:52;;;;;;;;;1.50;0.00;;;;;9.14;50.56;100754.47;4909672;28;45854;-71
2023/02/25 11:37:34;;;;;;;;;1.00;1.00;;;;;9.40;50.69;100801.72;4888092;28;45585;-68
2023/02/25 17:59:26;;;;;;;;;6.50;4.75;;;;;9.56;50.03;100819.06;5498691;23;46724;-70
2023/02/25 18:01:57;;;;;;;;;3.75;3.75;;;;;9.81;49.98;100853.06;4900698;29;45520;-72
2023/02/25 18:04:36;;;;;;;;;7.00;5.00;;;;;9.52;50.44;100809.41;4878553;29;47572;-70
2023/02/25 21:14:28;;;;;;;;;;;;;;;;;;;;;
2023/02/25 21:17:08;;;;;;;;;;;;;;;;;;;;;
2023/02/25 21:19:45;;;;;;;;;3.00;3.00;;;;;8.00;51.86;101031.81;4866395;29;71669;-68
2023/02/25 21:22:13;;;;;;;;;7.50;6.50;;;;;8.04;51.68;101044.19;4848687;29;45587;-69
2023/02/25 21:24:38;;;;;;;;;6.00;4.00;;;;;7.74;51.44;101006.56;4840754;29;45806;-71
2023/02/25 21:27:04;;;;;;;;;7.50;4.00;;;;;8.02;51.15;101059.28;4824720;29;47144;-71
2023/02/25 23:13:00;;;;;;;;;6.50;5.25;;;;;7.06;51.04;101107.56;4844117;29;45425;-69
